Thunderstorms From: 25-05-2018 23:09 Until: 26-05-2018 15:00 warning for: Thunderstorms Level: Yellow info button

Although rather usual in this region, locally or potentially dangerous phenomena are expected. (such as local winds, summer thunderstorms, rising streams or high waves) Be aware and pay attention to the latest weather updates, especially if you carry out activities exposed to weather or close to a stream or shoreline. 


Meteo18 Weather Cam more information Meteo18 Weather Cam


warning for Thunderstorms more information blitzortung!


Rain radar more information rain snow radar


Visit our other weather sites:

Template documentation
and downloads

And another site



Weather Underground History page Text

Daily Summary for August 28, 2017 Units:  Metric    English   Both
« Previous Day
Next Day »
Daily Weekly Monthly Yearly Custom
  High: Low: Average:
Temperature: -17.8 °C -5.8 °C -3.1 °C
Dew Point: -17.8 °C -8.7 °C -7.8 °C
Humidity: Humidity % 42 % 61 %
Wind Speed: 0 km/h 0 km/h 8.4 km/h
Wind Gust: 0 km/h - -
Wind:- - East
Pressure: 0 hPa 34384.8 hPa -
Precipitation: 0 mm    
Historical Graphs
 
 
Tabular Data for August 28, 2017
Time Temperature Dew Point Pressure Wind Wind Speed Wind Gust Humidity Rainfall Rate (Hourly)
-17.8 °C -17.8 °C 0 hPa Calm     Humidity % 0 mm
00:02 -4.6 °C -7.1 °C 34462.7 hPa NE 7.7 km/h 18.2 km/h 76 % 0 mm
00:12 -4.7 °C -7.2 °C 34462.7 hPa Calm   20.8 km/h 76 % 0 mm
00:17 -4.7 °C -7.2 °C 34462.7 hPa NE 5.1 km/h 20.8 km/h 76 % 0 mm
00:22 -4.7 °C -7.2 °C 34462.7 hPa North 2.6 km/h 20.8 km/h 76 % 0 mm
00:32 -4.8 °C -7.3 °C 34462.7 hPa NE 2.6 km/h 12.9 km/h 76 % 0 mm
00:42 -4.8 °C -7.3 °C 34462.7 hPa NE 2.6 km/h 15.6 km/h 76 % 0 mm
00:47 -4.9 °C -7.4 °C 34462.7 hPa NNE 2.6 km/h 15.6 km/h 76 % 0 mm
00:57 -5 °C -7.4 °C 34462.7 hPa Calm   15.6 km/h 77 % 0 mm
01:02 -5 °C -7.4 °C 34462.7 hPa NE 5.1 km/h 15.6 km/h 77 % 0 mm
01:12 -4.9 °C -7.4 °C 34462.7 hPa NNE 7.7 km/h 18.2 km/h 76 % 0 mm
01:17 -4.9 °C -7.4 °C 34462.7 hPa Calm   18.2 km/h 76 % 0 mm
01:27 -5.1 °C -7.4 °C 34462.7 hPa Calm   12.9 km/h 77 % 0 mm
01:32 -5.1 °C -7.4 °C 34462.7 hPa Calm   12.9 km/h 77 % 0 mm
01:37 -5.1 °C -7.4 °C 34462.7 hPa North 2.6 km/h 12.9 km/h 77 % 0 mm
01:47 -5.1 °C -7.4 °C 34462.7 hPa Calm   10.3 km/h 77 % 0 mm
01:52 -5.1 °C -7.4 °C 34462.7 hPa NNW 5.1 km/h 10.3 km/h 77 % 0 mm
02:02 -5.1 °C -7.4 °C 34452.6 hPa Calm   10.3 km/h 77 % 0 mm
02:12 -5.2 °C -7.5 °C 34452.6 hPa Calm   7.7 km/h 77 % 0 mm
02:17 -5.2 °C -7.4 °C 34452.6 hPa Calm   7.7 km/h 78 % 0 mm
02:22 -5.3 °C -7.5 °C 34452.6 hPa Calm   5.1 km/h 78 % 0 mm
02:32 -5.3 °C -7.6 °C 34452.6 hPa Calm   2.6 km/h 78 % 0 mm
02:37 -5.3 °C -7.6 °C 34452.6 hPa North 7.7 km/h 7.7 km/h 78 % 0 mm
02:42 -5.3 °C -7.6 °C 34452.6 hPa Calm   5.1 km/h 78 % 0 mm
02:47 -5.3 °C -7.6 °C 34452.6 hPa North 5.1 km/h 10.3 km/h 78 % 0 mm
02:52 -5.3 °C -7.6 °C 34452.6 hPa North 10.3 km/h 10.3 km/h 78 % 0 mm
02:57 -5.3 °C -7.6 °C 34442.4 hPa North 7.7 km/h 10.3 km/h 78 % 0 mm
03:02 -5.3 °C -7.6 °C 34452.6 hPa NNE 2.6 km/h 10.3 km/h 78 % 0 mm
03:12 -5.3 °C -7.6 °C 34442.4 hPa Calm   12.9 km/h 78 % 0 mm
03:17 -5.4 °C -7.6 °C 34442.4 hPa NNW 2.6 km/h 12.9 km/h 78 % 0 mm
03:22 -5.3 °C -7.6 °C 34442.4 hPa NNE 5.1 km/h 7.7 km/h 78 % 0 mm
03:27 -5.3 °C -7.6 °C 34442.4 hPa North 7.7 km/h 10.3 km/h 78 % 0 mm
03:32 -5.3 °C -7.6 °C 34442.4 hPa ENE 5.1 km/h 10.3 km/h 78 % 0 mm
03:37 -5.3 °C -7.6 °C 34442.4 hPa North 12.9 km/h 23.3 km/h 78 % 0 mm
03:42 -5.3 °C -7.6 °C 34428.8 hPa NNW 7.7 km/h 23.3 km/h 78 % 0 mm
03:52 -5.3 °C -7.6 °C 34428.8 hPa NE 7.7 km/h 23.3 km/h 78 % 0 mm
03:57 -5.3 °C -7.6 °C 34428.8 hPa ENE 7.7 km/h 15.6 km/h 78 % 0 mm
04:02 -5.3 °C -7.6 °C 34428.8 hPa NNW 7.7 km/h 15.6 km/h 78 % 0 mm
04:12 -5.4 °C -7.6 °C 34428.8 hPa North 2.6 km/h 15.6 km/h 78 % 0 mm
04:17 -5.4 °C -7.6 °C 34428.8 hPa NNW 7.7 km/h 12.9 km/h 78 % 0 mm
04:22 -5.4 °C -7.6 °C 34428.8 hPa North 7.7 km/h 15.6 km/h 78 % 0 mm
04:32 -5.4 °C -7.7 °C 34428.8 hPa NNE 2.6 km/h 18.2 km/h 78 % 0 mm
04:37 -5.4 °C -7.7 °C 34428.8 hPa NE 2.6 km/h 12.9 km/h 78 % 0 mm
04:42 -5.5 °C -7.7 °C 34428.8 hPa ENE 2.6 km/h 10.3 km/h 78 % 0 mm
04:47 -5.5 °C -7.6 °C 34428.8 hPa NNE 5.1 km/h 10.3 km/h 79 % 0 mm
05:02 -5.4 °C -7.7 °C 34418.7 hPa NNW 5.1 km/h 12.9 km/h 78 % 0 mm
05:12 -5.6 °C -7.8 °C 34418.7 hPa NE 2.6 km/h 12.9 km/h 78 % 0 mm
05:17 -5.5 °C -7.7 °C 34418.7 hPa NNE 7.7 km/h 12.9 km/h 78 % 0 mm
05:22 -5.5 °C -7.7 °C 34418.7 hPa NNE 5.1 km/h 18.2 km/h 78 % 0 mm
05:27 -5.5 °C -7.7 °C 34418.7 hPa NE 7.7 km/h 18.2 km/h 78 % 0 mm
05:32 -5.6 °C -7.8 °C 34418.7 hPa NE 5.1 km/h 18.2 km/h 78 % 0 mm
05:42 -5.7 °C -7.8 °C 34418.7 hPa Calm   7.7 km/h 79 % 0 mm
05:47 -5.8 °C -7.9 °C 34405.1 hPa Calm   7.7 km/h 79 % 0 mm
05:57 -5.7 °C -7.9 °C 34418.7 hPa NNE 2.6 km/h 7.7 km/h 78 % 0 mm
06:02 -5.7 °C -7.9 °C 34418.7 hPa Calm   10.3 km/h 78 % 0 mm
06:12 -5.6 °C -7.9 °C 34418.7 hPa NNE 2.6 km/h 7.7 km/h 77 % 0 mm
06:17 -5.5 °C -7.9 °C 34418.7 hPa NNE 7.7 km/h 7.7 km/h 76 % 0 mm
06:27 -5.5 °C -7.9 °C 34418.7 hPa NNE 2.6 km/h 7.7 km/h 76 % 0 mm
06:32 -5.5 °C -7.9 °C 34418.7 hPa North 5.1 km/h 7.7 km/h 76 % 0 mm
06:42 -5.5 °C -7.8 °C 34418.7 hPa NNW 2.6 km/h 10.3 km/h 77 % 0 mm
06:47 -5.6 °C -7.9 °C 34418.7 hPa Calm   10.3 km/h 77 % 0 mm
06:52 -5.6 °C -7.9 °C 34418.7 hPa Calm   10.3 km/h 77 % 0 mm
07:02 -5.6 °C -7.9 °C 34418.7 hPa Calm   10.3 km/h 77 % 0 mm
07:12 -5.6 °C -7.9 °C 34428.8 hPa Calm   5.1 km/h 77 % 0 mm
07:17 -5.6 °C -8 °C 34428.8 hPa Calm   5.1 km/h 76 % 0 mm
07:22 -5.6 °C -7.9 °C 34428.8 hPa Calm     77 % 0 mm
07:32 -5.6 °C -7.9 °C 34428.8 hPa NNE 5.1 km/h 10.3 km/h 77 % 0 mm
07:42 -5.6 °C -7.8 °C 34428.8 hPa North 5.1 km/h 10.3 km/h 78 % 0 mm
07:52 -5.5 °C -7.8 °C 34428.8 hPa Calm   12.9 km/h 77 % 0 mm
07:57 -5.5 °C -7.8 °C 34428.8 hPa NNE 5.1 km/h 12.9 km/h 77 % 0 mm
08:02 -5.4 °C -7.8 °C 34428.8 hPa Calm   15.6 km/h 77 % 0 mm
08:12 -5.3 °C -7.9 °C 34442.4 hPa Calm   12.9 km/h 75 % 0 mm
08:17 -5.2 °C -7.8 °C 34442.4 hPa Calm   12.9 km/h 75 % 0 mm
08:27 -5.1 °C -7.9 °C 34442.4 hPa NNE 2.6 km/h 12.9 km/h 73 % 0 mm
08:32 -5.1 °C -7.9 °C 34442.4 hPa Calm   7.7 km/h 73 % 0 mm
08:37 -4.9 °C -7.6 °C 34452.6 hPa Calm   7.7 km/h 75 % 0 mm
08:42 -4.9 °C -7.6 °C 34452.6 hPa ENE 2.6 km/h 5.1 km/h 75 % 0 mm
08:47 -4.9 °C -7.7 °C 34452.6 hPa ENE 5.1 km/h 5.1 km/h 74 % 0 mm
08:57 -5.1 °C -7.7 °C 34452.6 hPa North 10.3 km/h 10.3 km/h 75 % 0 mm
09:02 -4.9 °C -7.5 °C 34452.6 hPa NNE 10.3 km/h 18.2 km/h 75 % 0 mm
09:12 -4.8 °C -7.6 °C 34452.6 hPa NNE 7.7 km/h 20.8 km/h 73 % 0 mm
09:17 -4.7 °C -7.5 °C 34452.6 hPa ENE 10.3 km/h 20.8 km/h 73 % 0 mm
09:22 -4.6 °C -7.4 °C 34452.6 hPa NE 7.7 km/h 20.8 km/h 73 % 0 mm
09:27 -4.4 °C -7.5 °C 34462.7 hPa North 7.7 km/h 20.8 km/h 71 % 0 mm
09:32 -4.3 °C -7.4 °C 34462.7 hPa NNW 2.6 km/h 18.2 km/h 71 % 0 mm
09:37 -4.1 °C -7.5 °C 34462.7 hPa NE 7.7 km/h 18.2 km/h 69 % 0 mm
09:42 -4 °C -7.5 °C 34462.7 hPa NE 2.6 km/h 15.6 km/h 68 % 0 mm
09:52 -3.8 °C -7.3 °C 34462.7 hPa Calm   15.6 km/h 68 % 0 mm
09:57 -3.7 °C -7.4 °C 34462.7 hPa NE 7.7 km/h 15.6 km/h 67 % 0 mm
10:02 -3.8 °C -7.4 °C 34462.7 hPa NNE 5.1 km/h 15.6 km/h 67 % 0 mm
10:12 -3.7 °C -7.4 °C 34462.7 hPa East 5.1 km/h 10.3 km/h 67 % 0 mm
10:17 -3.6 °C -7.3 °C 34462.7 hPa Calm   10.3 km/h 67 % 0 mm
10:27 -3.3 °C -7.2 °C 34462.7 hPa Calm   12.9 km/h 65 % 0 mm
10:32 -3 °C -7.1 °C 34462.7 hPa Calm   10.3 km/h 64 % 0 mm
10:42 -3.1 °C -7.3 °C 34462.7 hPa East 5.1 km/h 18.2 km/h 63 % 0 mm
10:47 -2.9 °C -7.2 °C 34462.7 hPa ENE 10.3 km/h 18.2 km/h 63 % 0 mm
10:52 -2.9 °C -7.3 °C 34462.7 hPa East 7.7 km/h 18.2 km/h 62 % 0 mm
10:57 -2.8 °C -7.1 °C 34462.7 hPa North 7.7 km/h 18.2 km/h 63 % 0 mm
11:02 -2.9 °C -7.1 °C 34462.7 hPa North 12.9 km/h 18.2 km/h 63 % 0 mm
11:12 -2.7 °C -7.1 °C 34462.7 hPa ENE 5.1 km/h 23.3 km/h 62 % 0 mm
11:17 -2.6 °C -7 °C 34462.7 hPa NE 12.9 km/h 23.3 km/h 62 % 0 mm
11:22 -2.6 °C -7.1 °C 34462.7 hPa NE 12.9 km/h 20.8 km/h 61 % 0 mm
11:27 -2.4 °C -6.8 °C 34462.7 hPa ENE 10.3 km/h 20.8 km/h 62 % 0 mm
11:32 -2.2 °C -6.8 °C 34462.7 hPa NE 2.6 km/h 18.2 km/h 61 % 0 mm
11:42 -2.1 °C -7.4 °C 34462.7 hPa NE 5.1 km/h 23.3 km/h 56 % 0 mm
11:47 -2 °C -7.3 °C 34462.7 hPa ENE 10.3 km/h 23.3 km/h 56 % 0 mm
11:52 -1.9 °C -7.3 °C 34462.7 hPa NNE 10.3 km/h 23.3 km/h 56 % 0 mm
11:57 -1.8 °C -7.3 °C 34462.7 hPa NNE 12.9 km/h 23.3 km/h 55 % 0 mm
12:02 -1.6 °C -7.2 °C 34462.7 hPa ENE 20.8 km/h 25.9 km/h 55 % 0 mm
12:12 -1.6 °C -7.3 °C 34462.7 hPa NE 15.6 km/h 25.9 km/h 54 % 0 mm
12:17 -1.6 °C -7.3 °C 34462.7 hPa NNE 18.2 km/h 25.9 km/h 54 % 0 mm
12:22 -1.6 °C -7.2 °C 34462.7 hPa East 7.7 km/h 31.1 km/h 55 % 0 mm
12:32 -1.6 °C -7.4 °C 34462.7 hPa ENE 12.9 km/h 31.1 km/h 53 % 0 mm
12:37 -1.6 °C -7.3 °C 34452.6 hPa NE 5.1 km/h 20.8 km/h 54 % 0 mm
12:42 -1.3 °C -7.2 °C 34452.6 hPa NE 10.3 km/h 20.8 km/h 53 % 0 mm
12:47 -1.1 °C -7 °C 34452.6 hPa NNW 12.9 km/h 20.8 km/h 53 % 0 mm
12:52 -1 °C -7.1 °C 34452.6 hPa North 15.6 km/h 25.9 km/h 52 % 0 mm
13:02 -0.9 °C -7.2 °C 34452.6 hPa NNE 20.8 km/h 25.9 km/h 51 % 0 mm
13:12 -0.7 °C -7.2 °C 34452.6 hPa NNE 18.2 km/h 31.1 km/h 50 % 0 mm
13:17 -0.7 °C -7.6 °C 34452.6 hPa NNE 15.6 km/h 31.1 km/h 48 % 0 mm
13:22 -0.8 °C -7.3 °C 34442.4 hPa East 5.1 km/h 28.5 km/h 50 % 0 mm
13:32 -0.8 °C -7.2 °C 34442.4 hPa ENE 12.9 km/h 25.9 km/h 50 % 0 mm
13:42 -0.9 °C -7.3 °C 34442.4 hPa NE 18.2 km/h 23.3 km/h 50 % 0 mm
13:52 -0.8 °C -7.3 °C 34442.4 hPa ENE 12.9 km/h 18.2 km/h 50 % 0 mm
13:57 -0.8 °C -7.4 °C 34442.4 hPa ENE 12.9 km/h 18.2 km/h 49 % 0 mm
14:02 -0.8 °C -7.4 °C 34442.4 hPa NE 18.2 km/h 20.8 km/h 49 % 0 mm
14:12 -0.8 °C -7.8 °C 34442.4 hPa NE 15.6 km/h 20.8 km/h 47 % 0 mm
14:17 -0.7 °C -7.6 °C 34442.4 hPa North 10.3 km/h 20.8 km/h 48 % 0 mm
14:22 -0.7 °C -7.7 °C 34442.4 hPa NNE 18.2 km/h 20.8 km/h 47 % 0 mm
14:27 -0.8 °C -7.6 °C 34428.8 hPa NE 5.1 km/h 20.8 km/h 48 % 0 mm
14:32 -0.7 °C -7.7 °C 34428.8 hPa NE 18.2 km/h 23.3 km/h 47 % 0 mm
14:37 -0.6 °C -7.8 °C 34428.8 hPa NNE 18.2 km/h 23.3 km/h 46 % 0 mm
14:42 -0.4 °C -7.7 °C 34428.8 hPa NE 18.2 km/h 25.9 km/h 46 % 0 mm
14:47 -0.3 °C -7.7 °C 34428.8 hPa NNE 23.3 km/h 25.9 km/h 45 % 0 mm
14:52 -0.2 °C -7.8 °C 34428.8 hPa NNE 5.1 km/h 25.9 km/h 44 % 0 mm
15:02 -0.1 °C -8.1 °C 34428.8 hPa NNE 10.3 km/h 25.9 km/h 42 % 0 mm
15:07 -0.1 °C -7.7 °C 34418.7 hPa NNE 12.9 km/h 25.9 km/h 44 % 0 mm
15:12 0.1 °C -7.8 °C 34418.7 hPa East 10.3 km/h 25.9 km/h 43 % 0 mm
15:17 0 °C -7.8 °C 34418.7 hPa NNE 18.2 km/h 25.9 km/h 43 % 0 mm
15:22 0 °C -7.3 °C 34418.7 hPa NNE 12.9 km/h 33.6 km/h 46 % 0 mm
15:32 0.1 °C -7.6 °C 34405.1 hPa NNW 12.9 km/h 28.5 km/h 44 % 0 mm
15:37 0.2 °C -7.3 °C 34405.1 hPa NE 25.9 km/h 28.5 km/h 45 % 0 mm
15:42 0.2 °C -7.9 °C 34405.1 hPa NNE 10.3 km/h 28.5 km/h 42 % 0 mm
15:47 -0.1 °C -7.5 °C 34405.1 hPa NE 15.6 km/h 33.6 km/h 45 % 0 mm
15:52 -0.1 °C -7.1 °C 34405.1 hPa ENE 12.9 km/h 33.6 km/h 47 % 0 mm
16:02 -0.1 °C -7.1 °C 34405.1 hPa NE 12.9 km/h 33.6 km/h 47 % 0 mm
16:12 -0.1 °C -7.5 °C 34405.1 hPa NE 23.3 km/h 31.1 km/h 45 % 0 mm
16:17 -0.1 °C -7.4 °C 34405.1 hPa North 20.8 km/h 36.2 km/h 46 % 0 mm
16:27 0.1 °C -7.6 °C 34405.1 hPa NNE 5.1 km/h 31.1 km/h 44 % 0 mm
16:32 0 °C -7.3 °C 34395 hPa ENE 23.3 km/h 31.1 km/h 46 % 0 mm
16:37 0.1 °C -7.4 °C 34395 hPa WNW 12.9 km/h 33.6 km/h 45 % 0 mm
16:47 -0.2 °C -7.4 °C 34395 hPa NNE 10.3 km/h 33.6 km/h 46 % 0 mm
16:52 -0.2 °C -7.4 °C 34395 hPa NNW 10.3 km/h 33.6 km/h 46 % 0 mm
16:57 -0.1 °C -7.4 °C 34395 hPa ENE 18.2 km/h 28.5 km/h 46 % 0 mm
17:02 -0.1 °C -7.4 °C 34395 hPa NE 20.8 km/h 28.5 km/h 46 % 0 mm
17:12 0.1 °C -7.3 °C 34384.8 hPa NNE 15.6 km/h 31.1 km/h 45 % 0 mm
17:17 0.1 °C -7.3 °C 34395 hPa NNE 15.6 km/h 36.2 km/h 45 % 0 mm
17:22 0.2 °C -7.3 °C 34384.8 hPa NE 20.8 km/h 36.2 km/h 45 % 0 mm
17:27 0.1 °C -7.6 °C 34384.8 hPa NW 2.6 km/h 36.2 km/h 44 % 0 mm
17:32 0.1 °C -7.4 °C 34384.8 hPa NE 15.6 km/h 36.2 km/h 45 % 0 mm
17:37 0.1 °C -7.6 °C 34384.8 hPa North 12.9 km/h 33.6 km/h 44 % 0 mm
17:42 0.2 °C -7.5 °C 34384.8 hPa NNW 10.3 km/h 33.6 km/h 44 % 0 mm
17:47 0.1 °C -7.6 °C 34384.8 hPa NE 20.8 km/h 33.6 km/h 44 % 0 mm
17:52 0.1 °C -7.6 °C 34384.8 hPa North 15.6 km/h 31.1 km/h 44 % 0 mm
17:57 0.1 °C -7.6 °C 34384.8 hPa NNW 12.9 km/h 31.1 km/h 44 % 0 mm
18:02 -0.1 °C -7.7 °C 34384.8 hPa NNE 15.6 km/h 31.1 km/h 44 % 0 mm
18:12 -0.1 °C -7.7 °C 34384.8 hPa NE 18.2 km/h 28.5 km/h 44 % 0 mm
18:17 -0.1 °C -7.6 °C 34384.8 hPa ENE 10.3 km/h 31.1 km/h 45 % 0 mm
18:22 -0.1 °C -7.6 °C 34384.8 hPa ENE 10.3 km/h 31.1 km/h 45 % 0 mm
18:27 -0.1 °C -7.8 °C 34384.8 hPa NE 15.6 km/h 28.5 km/h 44 % 0 mm
18:32 -0.2 °C -7.8 °C 34384.8 hPa NNW 12.9 km/h 28.5 km/h 44 % 0 mm
18:42 -0.2 °C -8.1 °C 34384.8 hPa NNE 15.6 km/h 28.5 km/h 43 % 0 mm
18:52 -0.3 °C -8.3 °C 34384.8 hPa NNE 18.2 km/h 28.5 km/h 42 % 0 mm
18:57 -0.4 °C -8.2 °C 34384.8 hPa North 15.6 km/h 28.5 km/h 43 % 0 mm
19:02 -0.5 °C -8.3 °C 34384.8 hPa NE 7.7 km/h 23.3 km/h 43 % 0 mm
19:12 -0.6 °C -8.2 °C 34384.8 hPa NE 7.7 km/h 31.1 km/h 44 % 0 mm
19:17 -0.7 °C -8.3 °C 34384.8 hPa NNW 5.1 km/h 31.1 km/h 44 % 0 mm
19:22 -0.7 °C -8.3 °C 34384.8 hPa NNE 5.1 km/h 25.9 km/h 44 % 0 mm
19:32 -0.8 °C -8 °C 34384.8 hPa NE 15.6 km/h 25.9 km/h 46 % 0 mm
19:37 -0.9 °C -8.1 °C 34384.8 hPa NE 5.1 km/h 25.9 km/h 46 % 0 mm
19:42 -1 °C -8 °C 34384.8 hPa NNE 12.9 km/h 25.9 km/h 47 % 0 mm
19:47 -1.1 °C -7.9 °C 34384.8 hPa NNE 12.9 km/h 25.9 km/h 48 % 0 mm
19:52 -1.2 °C -8 °C 34384.8 hPa NE 10.3 km/h 25.9 km/h 48 % 0 mm
19:57 -1.3 °C -7.9 °C 34384.8 hPa NNE 5.1 km/h 25.9 km/h 49 % 0 mm
20:02 -1.5 °C -8.1 °C 34384.8 hPa North 20.8 km/h 25.9 km/h 49 % 0 mm
20:12 -1.7 °C -8.3 °C 34384.8 hPa NE 2.6 km/h 28.5 km/h 49 % 0 mm
20:17 -1.8 °C -8.2 °C 34384.8 hPa ENE 2.6 km/h 28.5 km/h 50 % 0 mm
20:22 -1.9 °C -8.2 °C 34384.8 hPa NNE 12.9 km/h 28.5 km/h 50 % 0 mm
20:32 -2.1 °C -8.3 °C 34395 hPa NNE 10.3 km/h 31.1 km/h 51 % 0 mm
20:37 -2.2 °C -8.3 °C 34395 hPa NNE 7.7 km/h 31.1 km/h 51 % 0 mm
20:42 -2.3 °C -8.4 °C 34395 hPa NE 10.3 km/h 23.3 km/h 51 % 0 mm
20:47 -2.3 °C -8.5 °C 34395 hPa ENE 15.6 km/h 23.3 km/h 51 % 0 mm
20:52 -2.4 °C -8.6 °C 34395 hPa NNE 7.7 km/h 25.9 km/h 51 % 0 mm
21:12 -2.7 °C -8.6 °C 34395 hPa NE 10.3 km/h 23.3 km/h 52 % 0 mm
21:17 -2.7 °C -8.7 °C 34395 hPa NNE 15.6 km/h 25.9 km/h 52 % 0 mm
21:22 -2.7 °C -8.5 °C 34395 hPa NNE 15.6 km/h 25.9 km/h 53 % 0 mm
21:27 -2.8 °C -8.6 °C 34395 hPa ENE 7.7 km/h 25.9 km/h 53 % 0 mm
21:32 -2.8 °C -8.4 °C 34395 hPa ENE 5.1 km/h 28.5 km/h 54 % 0 mm
21:37 -2.8 °C -8.4 °C 34405.1 hPa NNE 18.2 km/h 28.5 km/h 54 % 0 mm
21:42 -2.9 °C -8.5 °C 34405.1 hPa NNE 15.6 km/h 28.5 km/h 54 % 0 mm
21:47 -2.9 °C -8.4 °C 34405.1 hPa NE 7.7 km/h 28.5 km/h 55 % 0 mm
21:57 -3.1 °C -8.5 °C 34405.1 hPa NE 10.3 km/h 28.5 km/h 55 % 0 mm
22:02 -3.2 °C -8.4 °C 34405.1 hPa ENE 5.1 km/h 28.5 km/h 56 % 0 mm
22:12 -3.3 °C -8.4 °C 34405.1 hPa NNE 7.7 km/h 28.5 km/h 57 % 0 mm
22:17 -3.4 °C -8.5 °C 34405.1 hPa NNE 15.6 km/h 25.9 km/h 57 % 0 mm
22:22 -3.4 °C -8.5 °C 34405.1 hPa NNW 10.3 km/h 25.9 km/h 57 % 0 mm
22:32 -3.4 °C -8.6 °C 34405.1 hPa NNE 12.9 km/h 25.9 km/h 57 % 0 mm
22:37 -3.4 °C -8.4 °C 34405.1 hPa NNE 15.6 km/h 23.3 km/h 58 % 0 mm
22:47 -3.6 °C -8.5 °C 34405.1 hPa NNE 10.3 km/h 23.3 km/h 58 % 0 mm
22:52 -3.7 °C -8.4 °C 34405.1 hPa NE 7.7 km/h 23.3 km/h 59 % 0 mm
22:57 -3.7 °C -8.4 °C 34405.1 hPa ENE 7.7 km/h 20.8 km/h 59 % 0 mm
23:02 -3.7 °C -8.5 °C 34405.1 hPa NNE 10.3 km/h 18.2 km/h 59 % 0 mm
23:12 -3.8 °C -8.6 °C 34405.1 hPa North 5.1 km/h 18.2 km/h 59 % 0 mm
23:17 -3.9 °C -8.5 °C 34405.1 hPa North 2.6 km/h 18.2 km/h 60 % 0 mm
23:22 -4 °C -8.6 °C 34418.7 hPa NE 10.3 km/h 15.6 km/h 60 % 0 mm
23:27 -4 °C -8.6 °C 34418.7 hPa NE 10.3 km/h 15.6 km/h 60 % 0 mm
23:32 -4 °C -8.6 °C 34405.1 hPa NE 5.1 km/h 12.9 km/h 60 % 0 mm
23:37 -4.1 °C -8.7 °C 34405.1 hPa North 2.6 km/h 15.6 km/h 60 % 0 mm
23:42 -4.1 °C -8.7 °C 34405.1 hPa NE 7.7 km/h 15.6 km/h 60 % 0 mm
23:47 -4.1 °C -8.6 °C 34405.1 hPa NE 5.1 km/h 20.8 km/h 61 % 0 mm
23:52 -4.1 °C -8.6 °C 34405.1 hPa NE 5.1 km/h 20.8 km/h 61 % 0 mm
23:57 -4.1 °C -8.6 °C 34405.1 hPa NE 5.1 km/h 20.8 km/h 61 % 0 mm
Meteo18
Compliments of Weather Underground - 4 mb

Script developed by  Jim McMurry - jmcmurry@mwt.net Adapted for the template by  Wim van der Kuil - Leuven-Template.eu

You find our weather info also at:

European Weather Network

Weather Underground

Equipment we use:

Weather-station
Davis Vue

Weather-program
Meteobridge

Weather-server
Raspberry PI 2 B+

Provider
1 and 1

Davis Vue

Meteobridge

Raspberry PI 2 B+

1 and 1